Time;durP1;ratioP1;P1;durP2;ratioP2;P2;SDS_P1;SDS_P2;PMS_P1;PMS_P2;Temp;Humidity;BMP_temperature;BMP_pressure;BME280_temperature;BME280_humidity;BME280_pressure;Samples;Min_cycle;Max_cycle;Signal;HPM_P1;HPM_P2
2021/06/15 00:00:37;;;;;;;20.35;11.07;;;;;;;19.47;72.43;99213.84;5075595;28;20047;-68
2021/06/15 00:03:03;;;;;;;16.67;9.57;;;;;;;19.51;72.32;99220.41;5075462;28;20130;-68
2021/06/15 00:05:41;;;;;;;14.82;9.98;;;;;;;19.53;72.05;99221.00;5092433;28;20070;-68
2021/06/15 00:08:07;;;;;;;20.50;10.05;;;;;;;19.42;72.04;99191.34;5058947;28;20428;-69
2021/06/15 00:10:33;;;;;;;14.15;8.95;;;;;;;19.47;71.96;99210.31;5075375;28;20040;-68
2021/06/15 00:12:59;;;;;;;16.70;10.35;;;;;;;19.56;71.90;99223.25;5092037;28;20044;-68
2021/06/15 00:15:25;;;;;;;11.95;8.00;;;;;;;19.57;71.91;99218.69;5058765;28;20419;-68
2021/06/15 00:17:51;;;;;;;16.15;9.23;;;;;;;19.57;71.89;99216.00;5091879;28;20048;-68
2021/06/15 00:20:18;;;;;;;21.10;10.07;;;;;;;19.60;71.80;99220.94;5058386;28;20105;-68
2021/06/15 00:22:44;;;;;;;13.65;9.75;;;;;;;19.60;71.82;99213.66;5093233;28;20040;-68
2021/06/15 00:25:12;;;;;;;17.42;10.10;;;;;;;19.62;71.73;99218.84;5091816;28;20044;-68
2021/06/15 00:27:38;;;;;;;22.20;10.23;;;;;;;19.53;71.68;99202.16;5091786;28;20076;-68
2021/06/15 00:30:05;;;;;;;18.05;10.07;;;;;;;19.59;71.72;99209.34;5091997;28;20043;-68
2021/06/15 00:32:31;;;;;;;16.00;10.27;;;;;;;19.52;71.71;99208.59;5075459;28;20100;-68
2021/06/15 00:34:57;;;;;;;16.42;9.88;;;;;;;19.58;72.09;99220.34;5092685;28;20059;-68
2021/06/15 00:37:22;;;;;;;15.57;8.60;;;;;;;19.55;72.13;99216.22;5091641;28;20051;-68
2021/06/15 00:39:49;;;;;;;16.95;12.00;;;;;;;19.53;72.18;99215.63;5074725;28;20075;-67
2021/06/15 00:42:15;;;;;;;16.17;10.23;;;;;;;19.42;72.14;99196.72;5091116;28;20077;-68
2021/06/15 00:44:41;;;;;;;12.73;10.20;;;;;;;19.48;72.32;99212.78;5091778;28;20154;-68
2021/06/15 00:47:07;;;;;;;14.27;10.77;;;;;;;19.45;72.18;99207.84;5092830;28;20040;-68
2021/06/15 00:49:36;;;;;;;16.25;11.75;;;;;;;19.46;72.33;99220.28;5074946;28;20051;-68
2021/06/15 00:52:04;;;;;;;18.97;10.37;;;;;;;19.46;72.14;99216.75;5058177;28;20044;-68
2021/06/15 00:54:30;;;;;;;19.75;13.05;;;;;;;19.35;72.27;99191.41;5092620;28;20055;-67
2021/06/15 00:56:56;;;;;;;18.88;11.55;;;;;;;19.45;72.13;99217.81;5092328;28;20040;-68
2021/06/15 00:59:21;;;;;;;14.90;10.18;;;;;;;19.46;72.28;99222.16;5057637;28;20039;-68
2021/06/15 01:01:47;;;;;;;17.30;11.63;;;;;;;19.44;72.08;99216.97;5092388;28;20527;-68
2021/06/15 01:04:15;;;;;;;18.80;12.40;;;;;;;19.32;72.15;99197.25;5058139;28;20063;-68
2021/06/15 01:07:11;;;;;;;18.13;12.60;;;;;;;19.44;72.10;99206.22;5057627;28;20485;-68
2021/06/15 01:09:43;;;;;;;20.02;15.38;;;;;;;19.43;72.39;99198.34;5091204;28;20055;-68
2021/06/15 01:12:28;;;;;;;18.52;14.50;;;;;;;19.41;72.30;99203.97;5074346;28;20059;-68
2021/06/15 01:15:03;;;;;;;20.40;14.63;;;;;;;19.45;72.38;99207.84;5090709;28;20048;-68
2021/06/15 01:17:35;;;;;;;16.02;12.07;;;;;;;19.46;72.10;99209.50;5090932;28;20059;-67
2021/06/15 01:20:21;;;;;;;17.75;10.77;;;;;;;19.53;71.62;99204.03;5090718;28;20048;-67
2021/06/15 01:23:05;;;;;;;14.10;10.45;;;;;;;19.59;71.09;99198.56;5090856;28;20080;-68
2021/06/15 01:25:47;;;;;;;12.18;9.15;;;;;;;19.67;70.83;99200.94;5057208;28;20067;-68
2021/06/15 01:28:18;;;;;;;20.00;9.95;;;;;;;19.74;70.92;99200.88;5057054;28;20051;-68
2021/06/15 01:30:58;;;;;;;22.30;8.68;;;;;;;19.72;70.39;99193.03;5073675;28;20040;-68
2021/06/15 01:33:26;;;;;;;18.08;9.02;;;;;;;19.83;70.15;99204.91;5090696;28;20035;-68
2021/06/15 01:35:54;;;;;;;15.02;9.70;;;;;;;19.83;69.96;99211.09;5073494;28;20059;-68
2021/06/15 01:38:25;;;;;;;15.43;8.75;;;;;;;19.76;69.78;99193.38;5073695;28;20465;-68
2021/06/15 01:40:55;;;;;;;14.13;8.25;;;;;;;19.87;69.62;99206.91;5090407;28;20093;-68
2021/06/15 01:43:47;;;;;;;17.17;9.32;;;;;;;19.94;69.64;99199.53;5057608;28;20176;-68
2021/06/15 01:46:19;;;;;;;23.40;13.13;;;;;;;19.98;69.85;99198.06;5090289;28;20507;-68
2021/06/15 01:48:49;;;;;;;21.33;11.43;;;;;;;20.03;69.76;99211.63;5090162;28;20522;-68
2021/06/15 01:51:18;;;;;;;18.15;11.50;;;;;;;20.04;69.58;99207.09;5073363;28;20056;-68
2021/06/15 01:53:53;;;;;;;19.70;11.85;;;;;;;20.10;69.60;99215.09;5089222;28;20047;-68
2021/06/15 01:56:29;;;;;;;19.98;12.60;;;;;;;20.15;69.81;99210.91;5057792;28;20461;-68
2021/06/15 01:59:00;;;;;;;13.80;10.23;;;;;;;20.18;69.55;99215.84;5056941;28;20044;-68
2021/06/15 02:01:28;;;;;;;18.00;10.73;;;;;;;20.10;69.41;99196.22;5090228;28;20046;-68
2021/06/15 02:03:58;;;;;;;21.60;12.65;;;;;;;20.17;69.88;99203.41;5057399;28;20066;-68
2021/06/15 02:06:25;;;;;;;20.38;11.02;;;;;;;20.27;69.47;99219.84;5056594;28;20051;-68
2021/06/15 02:08:54;;;;;;;13.93;9.93;;;;;;;20.27;69.16;99206.34;5091079;28;20564;-68
2021/06/15 02:11:39;;;;;;;17.65;11.48;;;;;;;20.28;69.40;99198.03;5090500;28;20046;-68
2021/06/15 02:14:25;;;;;;;22.30;11.10;;;;;;;20.42;68.92;99202.19;5089898;28;20044;-68
2021/06/15 02:17:14;;;;;;;24.67;11.75;;;;;;;20.52;69.21;99196.22;5059854;28;20134;-68
2021/06/15 02:20:00;;;;;;;19.48;11.43;;;;;;;20.57;69.00;99201.75;5068801;28;20048;-68
2021/06/15 02:22:28;;;;;;;22.30;11.57;;;;;;;20.65;68.82;99198.72;5089712;28;20048;-68
2021/06/15 02:24:56;;;;;;;22.85;11.63;;;;;;;20.72;68.50;99194.84;5072780;28;20538;-68
2021/06/15 02:27:23;;;;;;;17.17;11.45;;;;;;;20.80;68.10;99204.47;5073135;28;20510;-68
2021/06/15 02:29:53;;;;;;;17.20;9.60;;;;;;;20.87;67.97;99210.56;5090805;28;20127;-68
2021/06/15 02:32:22;;;;;;;17.42;10.30;;;;;;;20.92;67.65;99206.13;5072977;28;20119;-68
2021/06/15 02:34:49;;;;;;;18.75;11.43;;;;;;;21.00;67.25;99218.47;5072386;28;20462;-67
2021/06/15 02:37:19;;;;;;;16.92;10.38;;;;;;;21.03;67.27;99193.69;5073124;28;20040;-67
2021/06/15 02:39:46;;;;;;;17.85;10.20;;;;;;;21.10;67.15;99200.63;5073050;28;20044;-68
2021/06/15 02:42:14;;;;;;;21.23;11.55;;;;;;;21.17;66.95;99205.91;5072862;28;20056;-68
2021/06/15 02:44:43;;;;;;;22.73;11.88;;;;;;;21.22;66.58;99201.44;5073330;28;20449;-68
2021/06/15 02:47:14;;;;;;;16.08;10.30;;;;;;;21.19;66.61;99185.69;5073631;28;20081;-67
2021/06/15 02:49:59;;;;;;;23.38;10.70;;;;;;;21.28;67.09;99194.28;5073199;28;20052;-68
2021/06/15 02:52:35;;;;;;;26.13;11.05;;;;;;;21.35;66.59;99198.50;5056008;28;20523;-68
2021/06/15 02:55:10;;;;;;;24.73;10.23;;;;;;;21.34;66.15;99196.81;5072496;28;20048;-68
2021/06/15 02:57:37;;;;;;;16.10;9.77;;;;;;;21.35;65.80;99205.75;5056234;28;20066;-68
2021/06/15 03:00:06;;;;;;;15.18;10.40;;;;;;;21.36;65.73;99202.00;5072503;28;20496;-68
2021/06/15 03:02:32;;;;;;;22.38;11.07;;;;;;;21.40;65.86;99198.56;5089494;28;20500;-68
2021/06/15 03:04:58;;;;;;;19.88;10.82;;;;;;;21.43;65.97;99197.28;5089736;28;20051;-67
2021/06/15 03:07:31;;;;;;;17.67;9.70;;;;;;;21.47;65.83;99201.16;5060595;28;20048;-68
2021/06/15 03:10:00;;;;;;;14.18;9.50;;;;;;;21.49;65.01;99196.34;5093197;28;20568;-67
2021/06/15 03:12:35;;;;;;;20.38;9.05;;;;;;;21.57;64.87;99202.19;5060651;28;20040;-68
2021/06/15 03:15:01;;;;;;;14.55;8.73;;;;;;;21.63;64.59;99195.00;5059702;28;20086;-67
2021/06/15 03:17:29;;;;;;;26.15;10.80;;;;;;;21.69;64.45;99194.84;5093416;28;20178;-68
2021/06/15 03:20:01;;;;;;;22.73;11.38;;;;;;;21.79;64.45;99196.19;5076527;28;20055;-68
2021/06/15 03:22:39;;;;;;;17.65;10.90;;;;;;;21.87;63.87;99193.91;5060188;28;20082;-68
2021/06/15 03:25:06;;;;;;;14.68;10.95;;;;;;;21.96;63.50;99194.34;5043000;28;20101;-68
2021/06/15 03:27:40;;;;;;;20.07;10.73;;;;;;;21.96;63.50;99183.53;5093028;28;20050;-68
2021/06/15 03:30:11;;;;;;;20.33;10.82;;;;;;;22.10;63.46;99199.19;5094064;28;20055;-68
2021/06/15 03:32:56;;;;;;;19.67;10.45;;;;;;;22.17;63.30;99194.44;5059794;28;20044;-68
2021/06/15 03:35:27;;;;;;;14.43;10.15;;;;;;;22.19;62.73;99178.00;5059703;28;20078;-68
2021/06/15 03:37:58;;;;;;;24.65;10.45;;;;;;;22.34;63.10;99198.00;5059408;28;20094;-68
2021/06/15 03:40:25;;;;;;;21.65;11.73;;;;;;;22.44;62.80;99197.38;5094010;28;20072;-68
2021/06/15 03:42:52;;;;;;;18.50;10.75;;;;;;;22.53;62.79;99193.22;5075962;28;20514;-68
2021/06/15 03:45:24;;;;;;;17.00;9.98;;;;;;;22.56;62.40;99195.44;5093642;28;20088;-68
2021/06/15 03:47:51;;;;;;;24.27;10.45;;;;;;;22.61;62.16;99196.34;5075586;28;20059;-67
2021/06/15 03:50:18;;;;;;;20.98;9.70;;;;;;;22.57;62.07;99178.16;5075852;28;20051;-67
2021/06/15 03:52:46;;;;;;;17.52;10.05;;;;;;;22.72;61.83;99202.75;5042811;28;20047;-68
2021/06/15 03:55:13;;;;;;;17.50;9.85;;;;;;;22.81;61.53;99203.97;5092626;28;20051;-68
2021/06/15 03:57:42;;;;;;;25.40;9.70;;;;;;;22.78;61.33;99191.75;5042336;28;20039;-68
2021/06/15 04:00:19;;;;;;;22.60;9.80;;;;;;;23.00;61.04;99202.66;5075726;28;20044;-68
2021/06/15 04:02:47;;;;;;;14.73;8.85;;;;;;;23.09;60.45;99210.09;5075642;28;20048;-68
2021/06/15 04:05:15;;;;;;;17.77;8.80;;;;;;;23.12;60.26;99182.53;5053531;28;20127;-71
2021/06/15 04:07:43;;;;;;;10.73;7.90;;;;;;;23.67;58.79;99198.72;5080880;28;20036;-72
2021/06/15 04:10:10;;;;;;;16.13;7.70;;;;;;;24.19;57.32;99205.28;5090470;28;20530;-72
2021/06/15 04:12:36;;;;;;;17.85;7.80;;;;;;;24.63;56.19;99203.28;5073666;28;20051;-72
2021/06/15 04:15:03;;;;;;;15.90;7.68;;;;;;;24.86;55.11;99197.50;5090710;28;20052;-72
2021/06/15 04:17:32;;;;;;;16.55;8.10;;;;;;;25.13;54.40;99195.50;5091260;28;20040;-71
2021/06/15 04:19:58;;;;;;;20.08;7.88;;;;;;;25.49;53.39;99210.16;5074766;28;20040;-72
2021/06/15 04:22:33;;;;;;;17.10;8.10;;;;;;;25.76;52.69;99206.19;5041183;28;20195;-72
2021/06/15 04:25:00;;;;;;;20.15;8.18;;;;;;;25.97;52.16;99209.81;5074812;28;20036;-73
2021/06/15 04:27:26;;;;;;;19.50;7.95;;;;;;;26.10;51.34;99207.44;5091160;28;20048;-73
2021/06/15 04:29:56;;;;;;;15.73;7.85;;;;;;;26.31;50.27;99209.09;5057689;28;20036;-72
2021/06/15 04:32:30;;;;;;;14.20;7.78;;;;;;;26.27;50.34;99216.19;5092239;28;20036;-70
2021/06/15 04:34:59;;;;;;;16.75;8.60;;;;;;;26.05;51.29;99212.84;5091025;28;20047;-69
2021/06/15 04:37:25;;;;;;;22.88;9.55;;;;;;;25.83;51.36;99212.19;5073707;28;20040;-68
2021/06/15 04:40:28;;;;;;;23.15;8.90;;;;;;;25.67;51.70;99212.41;5040603;28;20040;-69
2021/06/15 04:42:54;;;;;;;17.90;8.73;;;;;;;25.56;52.03;99211.53;5016307;28;20040;-69
2021/06/15 04:45:23;;;;;;;21.45;9.18;;;;;;;25.45;51.97;99211.78;5057218;28;20040;-72
2021/06/15 04:48:04;;;;;;;21.50;9.20;;;;;;;25.35;52.55;99209.81;5073694;28;20126;-70
2021/06/15 04:50:31;;;;;;;19.38;9.23;;;;;;;25.32;53.25;99212.19;5074191;28;20048;-70
2021/06/15 04:52:58;;;;;;;19.63;9.02;;;;;;;25.32;53.18;99204.06;5040935;28;20527;-70
2021/06/15 04:55:28;;;;;;;20.02;9.70;;;;;;;25.31;52.88;99214.09;5090380;28;20167;-70
2021/06/15 04:57:56;;;;;;;17.90;9.65;;;;;;;25.34;53.22;99208.16;5057053;28;20073;-70
2021/06/15 05:00:23;;;;;;;26.35;9.65;;;;;;;25.38;53.28;99214.72;5090365;28;20412;-70
2021/06/15 05:02:49;;;;;;;17.67;9.45;;;;;;;25.45;53.20;99214.50;5074083;28;20050;-71
2021/06/15 05:05:16;;;;;;;16.58;9.57;;;;;;;25.53;53.45;99212.06;5040474;28;20044;-70
2021/06/15 05:07:42;;;;;;;20.60;8.93;;;;;;;25.57;53.43;99207.72;5057000;28;20040;-70
2021/06/15 05:10:08;;;;;;;16.45;8.90;;;;;;;25.53;53.34;99205.81;5056798;28;20044;-70
2021/06/15 05:12:38;;;;;;;22.35;9.57;;;;;;;25.49;53.39;99204.72;5090381;28;20389;-70
2021/06/15 05:15:09;;;;;;;17.38;8.50;;;;;;;25.39;53.42;99202.75;5090338;28;20040;-70
2021/06/15 05:17:35;;;;;;;19.02;8.40;;;;;;;25.22;53.56;99196.66;5040209;28;20052;-69
2021/06/15 05:20:07;;;;;;;29.67;9.38;;;;;;;25.25;53.61;99209.72;5056985;28;20129;-69
2021/06/15 05:22:45;;;;;;;19.30;8.70;;;;;;;25.23;54.30;99211.91;5073133;28;20054;-70
2021/06/15 05:25:11;;;;;;;18.15;8.55;;;;;;;25.21;53.99;99207.78;5090422;28;20550;-70
2021/06/15 05:27:37;;;;;;;21.92;9.20;;;;;;;25.09;53.48;99202.56;5056760;28;20075;-69
2021/06/15 05:30:05;;;;;;;18.85;8.90;;;;;;;25.16;53.92;99216.72;5056521;28;20074;-69
2021/06/15 05:32:31;;;;;;;23.35;9.68;;;;;;;25.14;54.23;99202.56;5091272;28;20145;-68
2021/06/15 05:34:58;;;;;;;24.48;10.13;;;;;;;25.13;53.97;99206.38;5056305;28;20062;-69
2021/06/15 05:37:24;;;;;;;25.52;10.82;;;;;;;25.14;53.54;99209.94;5089613;28;20070;-70
2021/06/15 05:39:49;;;;;;;18.90;10.00;;;;;;;25.14;53.92;99201.78;5056546;28;20044;-69
2021/06/15 05:42:15;;;;;;;16.60;10.10;;;;;;;25.06;54.04;99177.81;5039511;28;20039;-70
2021/06/15 05:44:41;;;;;;;31.75;9.95;;;;;;;25.18;53.61;99203.69;5073131;28;20050;-69
2021/06/15 05:47:07;;;;;;;17.02;10.27;;;;;;;25.22;53.79;99202.09;5039506;28;20044;-70
2021/06/15 05:49:33;;;;;;;21.58;10.52;;;;;;;25.24;53.74;99199.09;5056222;28;20040;-69
2021/06/15 05:52:03;;;;;;;21.23;9.18;;;;;;;25.30;53.12;99193.44;5073166;28;20499;-70
2021/06/15 05:54:30;;;;;;;19.48;10.05;;;;;;;25.35;53.17;99198.94;5089496;28;20043;-70
2021/06/15 05:56:56;;;;;;;22.70;9.50;;;;;;;25.41;53.06;99192.44;5072716;28;20039;-70
2021/06/15 05:59:22;;;;;;;31.23;9.32;;;;;;;25.48;52.32;99186.78;5055975;28;20560;-70
2021/06/15 06:01:48;;;;;;;22.27;9.48;;;;;;;25.52;52.65;99191.41;5089916;28;20047;-69
2021/06/15 06:04:16;;;;;;;21.65;9.63;;;;;;;25.61;52.68;99192.53;5055399;28;20040;-69
2021/06/15 06:09:26;;;;;;;20.85;9.95;;;;;;;25.84;51.83;99194.81;5058308;28;20404;-69
2021/06/15 06:11:52;;;;;;;19.83;9.88;;;;;;;25.92;51.36;99193.47;5056122;28;20040;-71
2021/06/15 06:14:18;;;;;;;18.08;9.95;;;;;;;25.94;51.12;99186.66;5039102;28;20045;-69
2021/06/15 06:16:44;;;;;;;27.77;10.77;;;;;;;26.08;51.07;99187.81;5055920;28;20036;-69
2021/06/15 06:19:11;;;;;;;21.17;9.20;;;;;;;26.16;50.70;99190.00;5055620;28;20526;-71
2021/06/15 06:21:37;;;;;;;22.35;9.52;;;;;;;26.20;50.35;99188.38;5072767;28;20121;-69
2021/06/15 06:24:05;;;;;;;20.60;9.27;;;;;;;26.27;50.12;99183.50;5055652;28;20492;-68
2021/06/15 06:26:31;;;;;;;16.90;8.77;;;;;;;26.33;49.88;99179.69;5072586;28;20068;-68
2021/06/15 06:28:57;;;;;;;19.48;8.25;;;;;;;26.41;49.61;99176.44;5055416;28;20075;-68
2021/06/15 06:31:23;;;;;;;18.35;7.85;;;;;;;26.48;49.56;99174.25;5055918;28;20044;-70
2021/06/15 06:33:49;;;;;;;20.23;8.50;;;;;;;26.62;48.84;99171.00;5055654;28;20091;-69
2021/06/15 06:36:15;;;;;;;16.90;8.95;;;;;;;26.68;48.38;99176.19;5038644;28;20040;-69
2021/06/15 06:38:41;;;;;;;17.27;9.65;;;;;;;26.66;48.26;99153.03;5089334;28;20085;-68
2021/06/15 06:41:07;;;;;;;18.20;8.43;;;;;;;26.88;48.17;99170.72;5077381;28;20048;-68
2021/06/15 06:43:36;;;;;;;20.38;8.90;;;;;;;26.92;47.90;99154.63;5078929;28;20531;-68
2021/06/15 06:46:02;;;;;;;20.67;8.20;;;;;;;27.11;47.78;99164.69;5079509;28;20039;-68
2021/06/15 06:48:28;;;;;;;14.18;8.27;;;;;;;27.22;47.72;99165.47;5061704;28;20169;-68
2021/06/15 06:50:53;;;;;;;19.83;7.90;;;;;;;27.34;46.99;99164.09;5097326;28;20118;-68
2021/06/15 06:53:19;;;;;;;14.27;8.00;;;;;;;27.46;46.83;99163.78;5097087;28;20392;-68
2021/06/15 06:55:45;;;;;;;15.90;8.48;;;;;;;27.61;46.51;99159.09;5045351;28;20044;-68
2021/06/15 06:58:11;;;;;;;14.50;8.70;;;;;;;27.71;46.23;99156.31;5078503;28;20052;-68
2021/06/15 07:00:36;;;;;;;12.80;7.88;;;;;;;27.76;45.67;99144.53;5061881;28;20556;-67
2021/06/15 07:03:03;;;;;;;13.82;6.88;;;;;;;28.00;44.74;99162.72;5061829;28;20514;-68
2021/06/15 07:05:29;;;;;;;16.58;6.60;;;;;;;28.10;44.10;99150.94;5078467;28;20032;-68
2021/06/15 07:07:55;;;;;;;11.48;6.32;;;;;;;28.35;43.30;99158.94;5061948;28;20039;-68
2021/06/15 07:10:21;;;;;;;15.45;5.78;;;;;;;28.49;42.95;99164.63;5095359;28;20059;-68
2021/06/15 07:12:48;;;;;;;13.43;6.20;;;;;;;28.59;42.33;99162.59;5078693;28;20082;-69
2021/06/15 07:15:16;;;;;;;10.00;6.13;;;;;;;28.57;41.92;99156.59;5078322;28;20047;-68
2021/06/15 07:17:42;;;;;;;11.65;6.40;;;;;;;28.53;42.05;99155.56;5061697;28;20061;-68
2021/06/15 07:20:09;;;;;;;11.98;7.05;;;;;;;28.50;42.16;99166.22;5078505;28;20513;-66
2021/06/15 07:22:35;;;;;;;15.65;7.38;;;;;;;28.32;42.61;99150.50;5061496;28;20044;-68
2021/06/15 07:25:00;;;;;;;19.88;7.55;;;;;;;28.30;42.58;99156.25;5078308;28;20039;-68
2021/06/15 07:27:27;;;;;;;16.02;7.38;;;;;;;28.41;42.57;99151.53;5061313;28;20044;-69
2021/06/15 07:29:52;;;;;;;20.00;10.85;;;;;;;28.83;42.27;99144.34;5061809;28;20575;-68
2021/06/15 07:32:18;;;;;;;15.48;6.93;;;;;;;29.67;40.48;99151.09;5044532;28;20040;-68
2021/06/15 07:34:44;;;;;;;12.90;7.30;;;;;;;30.69;38.91;99150.94;5094647;28;20058;-69
2021/06/15 07:37:10;;;;;;;14.02;9.30;;;;;;;31.66;36.74;99146.09;5094718;28;20043;-69
2021/06/15 07:39:35;;;;;;;14.10;8.90;;;;;;;32.35;35.45;99137.41;5061445;28;20511;-68
2021/06/15 07:42:02;;;;;;;18.48;7.40;;;;;;;33.44;34.38;99137.59;5061416;28;20089;-69
2021/06/15 07:44:28;;;;;;;10.68;6.28;;;;;;;35.12;30.69;99130.78;5096317;28;20044;-70
2021/06/15 07:46:55;;;;;;;14.88;7.15;;;;;;;36.65;27.61;99128.16;5063311;28;20055;-68
2021/06/15 07:49:22;;;;;;;15.95;4.88;;;;;;;38.48;25.75;99130.25;5078518;28;20480;-69
2021/06/15 07:51:48;;;;;;;18.50;5.03;;;;;;;40.55;22.85;99117.88;5095101;28;20083;-70
2021/06/15 07:54:14;;;;;;;14.40;4.35;;;;;;;42.21;20.89;99124.31;5058010;28;20059;-69
2021/06/15 07:56:40;;;;;;;7.93;4.93;;;;;;;43.31;18.58;99113.16;5074766;28;20040;-69
2021/06/15 07:59:06;;;;;;;10.68;4.43;;;;;;;43.45;17.71;99116.88;5057800;28;20044;-68
2021/06/15 08:01:31;;;;;;;9.90;3.92;;;;;;;43.88;17.49;99112.41;5058353;28;20040;-68
2021/06/15 08:03:57;;;;;;;7.03;3.30;;;;;;;44.55;15.78;99113.53;5041728;28;20043;-72
2021/06/15 08:06:23;;;;;;;4.68;2.78;;;;;;;44.37;15.82;99107.06;5074727;28;20051;-70
2021/06/15 08:08:49;;;;;;;4.63;2.70;;;;;;;44.86;15.48;99109.25;5074557;28;20063;-69
2021/06/15 08:11:15;;;;;;;4.28;3.00;;;;;;;45.65;14.92;99101.25;5040806;28;20043;-69
2021/06/15 08:13:41;;;;;;;9.32;3.85;;;;;;;46.84;13.99;99100.78;5074776;28;20431;-70
2021/06/15 08:16:06;;;;;;;10.20;3.60;;;;;;;47.93;13.48;99104.75;5040896;28;20135;-70
2021/06/15 08:18:32;;;;;;;7.15;3.30;;;;;;;48.52;13.17;99087.06;5057503;28;20055;-69
2021/06/15 08:20:59;;;;;;;10.07;3.15;;;;;;;47.07;14.04;99089.81;5057975;28;20454;-70
2021/06/15 08:23:25;;;;;;;8.70;2.95;;;;;;;44.66;15.60;99084.38;5074541;28;20044;-68
2021/06/15 08:25:52;;;;;;;12.27;3.10;;;;;;;42.20;18.24;99078.00;5091156;28;20047;-69
2021/06/15 08:28:18;;;;;;;5.03;2.97;;;;;;;40.18;19.89;99077.78;5091015;28;20637;-69
2021/06/15 08:30:44;;;;;;;12.23;3.30;;;;;;;37.95;22.00;99077.16;5091544;28;20048;-69
2021/06/15 08:33:10;;;;;;;16.77;3.40;;;;;;;36.52;24.07;99066.44;5074339;28;20499;-69
2021/06/15 08:35:36;;;;;;;9.05;3.30;;;;;;;35.71;24.95;99068.09;5057492;28;20047;-69
2021/06/15 08:38:02;;;;;;;10.18;3.20;;;;;;;35.10;25.80;99043.91;5074084;28;20046;-69
2021/06/15 08:40:29;;;;;;;9.45;3.38;;;;;;;34.79;26.61;99046.97;5074144;28;20070;-69
2021/06/15 08:42:55;;;;;;;9.90;4.05;;;;;;;34.55;28.13;99059.69;5074433;28;20039;-69
2021/06/15 08:45:21;;;;;;;11.35;6.20;;;;;;;34.22;29.08;99065.72;5090648;28;20044;-69
2021/06/15 08:47:49;;;;;;;13.68;4.70;;;;;;;33.81;29.80;99048.06;5057244;28;20040;-69
2021/06/15 08:50:18;;;;;;;9.80;5.38;;;;;;;33.72;30.50;99063.78;5057261;28;20032;-69
2021/06/15 08:52:45;;;;;;;13.02;5.07;;;;;;;33.58;30.80;99065.84;5074064;28;20518;-68
2021/06/15 08:55:11;;;;;;;11.95;5.07;;;;;;;35.06;28.39;99052.06;5057083;28;20044;-69
2021/06/15 08:57:38;;;;;;;11.13;4.72;;;;;;;37.37;26.10;99061.06;5073940;28;20123;-69
2021/06/15 09:00:06;;;;;;;8.40;4.22;;;;;;;39.91;22.43;99048.19;5073755;28;20423;-69
2021/06/15 09:02:44;;;;;;;9.95;3.88;;;;;;;42.38;19.70;99062.34;5056979;28;20130;-69
2021/06/15 09:05:12;;;;;;;13.57;4.55;;;;;;;44.31;17.53;99044.25;5056811;28;20063;-69
2021/06/15 09:08:01;;;;;;;18.35;4.13;;;;;;;45.99;15.65;99046.25;5073762;28;20130;-69
2021/06/15 09:10:31;;;;;;;12.40;3.70;;;;;;;47.18;14.05;99041.91;5073909;28;20056;-69
2021/06/15 09:12:58;;;;;;;6.60;2.90;;;;;;;48.20;13.60;99035.16;5040743;28;20551;-70
2021/06/15 09:15:25;;;;;;;6.90;3.70;;;;;;;49.06;12.76;99037.13;5057454;28;20051;-70
2021/06/15 09:17:51;;;;;;;11.35;3.35;;;;;;;50.00;12.19;99030.94;5090080;28;20040;-70
2021/06/15 09:20:28;;;;;;;3.88;2.83;;;;;;;50.62;11.02;99025.13;5056678;28;20036;-69
2021/06/15 09:22:57;;;;;;;7.30;2.90;;;;;;;51.08;10.40;99015.50;5090258;28;20044;-69
2021/06/15 09:25:24;;;;;;;9.57;2.65;;;;;;;51.66;10.54;99020.81;5091058;28;20096;-70
2021/06/15 09:27:51;;;;;;;3.40;2.10;;;;;;;52.41;9.99;99013.75;5073473;28;20517;-69
2021/06/15 09:30:17;;;;;;;7.00;2.03;;;;;;;52.45;9.04;99015.25;5056549;28;20040;-68
2021/06/15 09:32:44;;;;;;;4.68;2.20;;;;;;;52.15;9.43;99010.06;5072830;28;20511;-67
2021/06/15 09:35:18;;;;;;;4.30;1.80;;;;;;;52.47;8.99;99011.94;5089619;28;20420;-69
2021/06/15 09:37:44;;;;;;;7.97;2.22;;;;;;;52.81;8.97;99012.84;5090055;28;20104;-70
2021/06/15 09:40:17;;;;;;;6.95;2.45;;;;;;;53.31;8.29;99006.28;5072604;28;20138;-69
2021/06/15 09:43:02;;;;;;;9.50;2.45;;;;;;;53.39;8.05;98999.09;5072294;28;20069;-69
2021/06/15 09:45:48;;;;;;;5.70;2.28;;;;;;;53.65;8.07;98988.44;5070996;28;20059;-68
2021/06/15 09:48:30;;;;;;;7.32;2.88;;;;;;;54.34;7.70;98989.81;5069478;28;20096;-69
2021/06/15 09:51:08;;;;;;;12.82;2.97;;;;;;;54.92;7.75;98992.75;5070880;28;20076;-69
2021/06/15 09:53:43;;;;;;;8.60;2.90;;;;;;;55.09;7.74;98982.59;5053828;28;20050;-69
2021/06/15 09:56:14;;;;;;;7.07;2.78;;;;;;;55.21;7.52;98993.88;5054799;28;20147;-69
2021/06/15 09:58:53;;;;;;;7.28;2.80;;;;;;;55.33;8.06;98978.69;5055503;28;20042;-69
2021/06/15 10:01:39;;;;;;;7.40;2.60;;;;;;;52.80;8.84;98956.53;5072541;28;20040;-69
2021/06/15 10:04:14;;;;;;;6.30;2.78;;;;;;;50.76;10.08;98956.09;5039421;28;20401;-69
2021/06/15 10:06:44;;;;;;;3.53;2.50;;;;;;;50.85;10.53;98953.44;5089193;28;20396;-69
2021/06/15 10:09:10;;;;;;;6.43;2.83;;;;;;;51.16;10.15;98957.50;5089693;28;20039;-69
2021/06/15 10:11:36;;;;;;;10.18;3.13;;;;;;;51.78;9.68;98945.59;5072693;28;20419;-69
2021/06/15 10:14:04;;;;;;;6.35;3.03;;;;;;;51.09;9.99;98949.97;5089271;28;20076;-69
2021/06/15 10:16:30;;;;;;;5.50;2.88;;;;;;;50.97;10.02;98947.06;5055177;28;20510;-68
2021/06/15 10:19:00;;;;;;;9.50;3.00;;;;;;;51.45;9.57;98946.97;5089538;28;20048;-69
2021/06/15 10:21:27;;;;;;;9.05;2.92;;;;;;;52.13;9.16;98940.91;5055833;28;20396;-69
2021/06/15 10:23:53;;;;;;;6.72;2.65;;;;;;;51.90;9.76;98942.03;5090269;28;20048;-69
2021/06/15 10:26:19;;;;;;;11.63;3.10;;;;;;;51.82;9.67;98926.47;5071898;28;20101;-69
2021/06/15 10:28:45;;;;;;;9.13;3.22;;;;;;;52.39;9.46;98922.69;5089614;28;20052;-69
2021/06/15 10:31:11;;;;;;;10.20;2.72;;;;;;;52.20;9.01;98929.34;5072180;28;20134;-69
2021/06/15 10:33:45;;;;;;;5.03;2.08;;;;;;;49.66;9.65;98923.91;5089054;28;20131;-68
2021/06/15 10:36:11;;;;;;;7.53;2.72;;;;;;;48.46;10.85;98916.84;5054873;28;20462;-68
2021/06/15 10:38:45;;;;;;;11.32;2.88;;;;;;;48.15;11.70;98914.50;5089435;28;20047;-69
2021/06/15 10:41:23;;;;;;;5.68;2.70;;;;;;;46.12;12.73;98910.59;5072088;28;20091;-69
2021/06/15 10:43:53;;;;;;;7.28;2.72;;;;;;;42.93;15.78;98880.44;5090172;28;20491;-69
2021/06/15 10:46:19;;;;;;;6.13;2.83;;;;;;;41.48;17.64;98898.94;5072026;28;20426;-69
2021/06/15 10:48:56;;;;;;;4.35;2.63;;;;;;;40.69;18.23;98897.41;5090324;28;20436;-69
2021/06/15 10:51:26;;;;;;;5.03;2.75;;;;;;;40.28;18.96;98889.91;5090031;28;20063;-69
2021/06/15 10:54:01;;;;;;;11.60;8.77;;;;;;;40.39;18.74;98894.50;5072429;28;20036;-68
2021/06/15 10:56:33;;;;;;;5.35;3.08;;;;;;;41.25;17.58;98901.03;5055982;28;20052;-68
2021/06/15 10:59:07;;;;;;;4.90;3.10;;;;;;;42.05;17.36;98894.84;5090305;28;20047;-68
2021/06/15 11:01:34;;;;;;;7.90;3.08;;;;;;;42.80;16.63;98886.75;5055626;28;20051;-69
2021/06/15 11:04:04;;;;;;;8.07;3.22;;;;;;;43.36;16.24;98884.31;5089261;28;20078;-69
2021/06/15 11:06:30;;;;;;;7.95;2.97;;;;;;;42.97;16.43;98875.69;5088551;28;20542;-68
2021/06/15 11:09:17;;;;;;;7.78;3.10;;;;;;;41.95;17.00;98889.97;5088552;28;20040;-68
2021/06/15 11:12:06;;;;;;;7.30;3.13;;;;;;;40.43;18.60;98880.66;5090272;28;20048;-68
2021/06/15 11:14:31;;;;;;;7.20;3.13;;;;;;;39.10;19.75;98862.09;5073452;28;20090;-69
2021/06/15 11:17:00;;;;;;;6.45;2.65;;;;;;;38.49;19.59;98856.28;5054900;28;20071;-68
2021/06/15 11:19:29;;;;;;;9.82;2.80;;;;;;;38.18;20.27;98859.09;5072025;28;20122;-68
2021/06/15 11:22:07;;;;;;;8.40;3.50;;;;;;;37.95;21.54;98850.53;5055021;28;20157;-68
2021/06/15 11:24:36;;;;;;;6.72;2.97;;;;;;;37.71;21.22;98845.16;5088746;28;20604;-69
2021/06/15 11:27:19;;;;;;;8.60;3.08;;;;;;;37.27;22.05;98853.75;5091116;28;20059;-68
2021/06/15 11:29:47;;;;;;;6.13;3.47;;;;;;;37.06;22.94;98840.06;5075856;28;20048;-69
2021/06/15 11:32:16;;;;;;;6.47;3.03;;;;;;;36.83;24.04;98850.03;5092306;28;20488;-69
2021/06/15 11:34:43;;;;;;;6.25;3.45;;;;;;;36.50;23.23;98843.84;5092491;28;20048;-69
2021/06/15 11:37:19;;;;;;;8.07;3.67;;;;;;;35.98;23.75;98840.91;5092646;28;20544;-69
2021/06/15 11:39:45;;;;;;;6.47;3.63;;;;;;;35.95;23.60;98843.56;5092445;28;20127;-68